TAF SULS
SULS 260535Z 2606/2706 19010KT 9999 BKN010 BKN070 TX24/2618Z TN17/2609Z TEMPO 2606/2612 3000 RADZ BKN008 OVC060 TEMPO 2612/2618 16015G25KT=
METAR SULS
WC SULS
WS SULS
WV SULS